Terminal Aerodrome Forecast
Issued by NWS

Home | Current Version | Previous Version | Text Only | Print | Product List | Glossary On
Versions: 1 2 3 4 5 6 7 8 9 10 11 12 13 14 15 16 17
000
FTUS44 KOUN 270128 AAA
TAFWWR
TAF AMD
KWWR 270128Z 2701/2724 16019G29KT P6SM VCTS SCT060CB BKN250
      TEMPO 2701/2703 VRB20G35KT 2SM TSRA FEW015 BKN060CB
     FM270400 17018G26KT P6SM BKN250
     FM270600 17015G25KT P6SM BKN015
     FM271400 19013G21KT P6SM SCT025
      AMD NOT SKED=

USA.gov is the U.S. government's official web portal to all federal, state and local government web resources and services.